createdAt,value
2017-11-24T00:00:03.203Z,99500.31
2017-11-24T00:02:29.552Z,99503.83
2017-11-24T00:04:55.859Z,99501.45
2017-11-24T00:07:22.177Z,99513.99
2017-11-24T00:09:49.201Z,99518.28
2017-11-24T00:12:15.519Z,99515.66
2017-11-24T00:14:41.811Z,99516.50
2017-11-24T00:17:08.115Z,99509.80
2017-11-24T00:19:35.227Z,99507.66
2017-11-24T00:22:03.065Z,99503.87
2017-11-24T00:24:29.356Z,99507.55
2017-11-24T00:26:56.421Z,99511.32
2017-11-24T00:29:22.736Z,99511.45
2017-11-24T00:31:49.774Z,99516.53
2017-11-24T00:34:16.063Z,99512.10
2017-11-24T00:36:49.382Z,99516.25
2017-11-24T00:39:15.705Z,99514.33
2017-11-24T00:41:42.040Z,99518.13
2017-11-24T00:44:08.381Z,99516.93
2017-11-24T00:46:34.688Z,99524.06
2017-11-24T00:51:27.303Z,99535.23
2017-11-24T00:53:53.649Z,99525.62
2017-11-24T00:56:19.954Z,99522.34
2017-11-24T00:58:46.357Z,99529.13
2017-11-24T01:01:12.973Z,99522.22
2017-11-24T01:03:39.255Z,99524.73
2017-11-24T01:06:05.572Z,99530.95
2017-11-24T01:08:32.594Z,99534.19
2017-11-24T01:10:58.934Z,99534.25
2017-11-24T01:13:25.269Z,99532.27
2017-11-24T01:15:51.585Z,99529.18
2017-11-24T01:18:17.898Z,99527.98
2017-11-24T01:20:44.269Z,99533.70
2017-11-24T01:23:10.599Z,99532.33
2017-11-24T01:25:36.932Z,99527.09
2017-11-24T01:28:03.256Z,99528.69
2017-11-24T01:30:29.563Z,99523.75
2017-11-24T01:32:55.922Z,99526.42
2017-11-24T01:35:22.223Z,99530.91
2017-11-24T01:37:48.531Z,99530.19
2017-11-24T01:40:14.783Z,99525.17
2017-11-24T01:42:41.050Z,99531.86
2017-11-24T01:45:07.304Z,99528.66
2017-11-24T01:47:34.305Z,99533.10
2017-11-24T01:50:02.080Z,99533.09
2017-11-24T01:52:28.416Z,99528.00
2017-11-24T01:54:54.748Z,99522.51
2017-11-24T01:57:21.069Z,99522.40
2017-11-24T01:59:47.396Z,99525.64
2017-11-24T02:02:13.736Z,99526.43
2017-11-24T02:04:40.006Z,99529.64
2017-11-24T02:07:07.052Z,99528.36
2017-11-24T02:09:33.321Z,99534.38
2017-11-24T02:11:59.604Z,99531.09
2017-11-24T02:14:26.659Z,99533.24
2017-11-24T02:16:52.940Z,99530.00
2017-11-24T02:19:19.213Z,99532.32
2017-11-24T02:21:46.270Z,99533.25
2017-11-24T02:24:12.553Z,99536.25
2017-11-24T02:26:38.930Z,99531.80
2017-11-24T02:29:05.305Z,99504.92
2017-11-24T02:31:31.637Z,99522.52
2017-11-24T02:33:57.909Z,99530.98
2017-11-24T02:36:24.222Z,99533.34
2017-11-24T02:38:50.475Z,99528.91
2017-11-24T02:41:17.472Z,99534.09
2017-11-24T02:43:43.751Z,99529.41
2017-11-24T02:46:10.740Z,99533.83
2017-11-24T02:48:37.210Z,99528.44
2017-11-24T02:51:04.896Z,99522.97
2017-11-24T02:53:31.930Z,99520.13
2017-11-24T02:55:59.042Z,99518.71
2017-11-24T02:58:25.384Z,99523.40
2017-11-24T03:00:51.705Z,99518.44
2017-11-24T03:03:17.990Z,99524.56
2017-11-24T03:05:45.140Z,99520.33
2017-11-24T03:08:12.142Z,99519.66
2017-11-24T03:10:38.406Z,99528.23
2017-11-24T03:13:05.465Z,99532.56
2017-11-24T03:15:32.473Z,99522.80
2017-11-24T03:17:58.725Z,99524.16
2017-11-24T03:20:24.993Z,99524.77
2017-11-24T03:22:51.325Z,99515.98
2017-11-24T03:25:17.655Z,99523.38
2017-11-24T03:27:43.955Z,99508.52
2017-11-24T03:30:11.028Z,99511.70
2017-11-24T03:32:37.290Z,99510.77
2017-11-24T03:35:03.690Z,99525.60
2017-11-24T03:37:29.988Z,99530.93
2017-11-24T03:39:56.274Z,99522.18
2017-11-24T03:42:22.659Z,99526.23
2017-11-24T03:44:49.676Z,99529.31
2017-11-24T03:47:15.961Z,99522.52
2017-11-24T03:49:42.237Z,99516.98
2017-11-24T03:52:08.548Z,99505.23
2017-11-24T03:54:34.853Z,99506.35
2017-11-24T03:57:01.166Z,99507.22
2017-11-24T03:59:28.237Z,99506.52
2017-11-24T04:01:54.530Z,99506.57
2017-11-24T04:04:20.886Z,99508.32
2017-11-24T04:06:47.204Z,99498.87
2017-11-24T04:09:14.231Z,99509.76
2017-11-24T04:11:40.523Z,99507.40
2017-11-24T04:14:06.849Z,99507.81
2017-11-24T04:16:33.157Z,99503.84
2017-11-24T04:18:59.447Z,99494.33
2017-11-24T04:21:25.785Z,99505.16
2017-11-24T04:23:52.051Z,99496.22
2017-11-24T04:26:18.340Z,99500.70
2017-11-24T04:28:44.641Z,99493.83
2017-11-24T04:31:10.954Z,99495.93
2017-11-24T04:33:37.262Z,99501.64
2017-11-24T04:36:03.652Z,99496.77
2017-11-24T04:38:29.925Z,99490.14
2017-11-24T04:40:56.962Z,99510.33
2017-11-24T04:43:23.978Z,99511.86
2017-11-24T04:45:50.239Z,99517.83
2017-11-24T04:48:16.563Z,99512.06
2017-11-24T04:50:42.888Z,99509.39
2017-11-24T04:53:09.316Z,99505.33
2017-11-24T04:55:35.655Z,99508.50
2017-11-24T04:58:02.701Z,99498.31
2017-11-24T05:00:29.032Z,99493.02
2017-11-24T05:02:55.363Z,99502.48
2017-11-24T05:05:23.153Z,99504.38
2017-11-24T05:07:50.483Z,99494.25
2017-11-24T05:10:16.781Z,99488.84
2017-11-24T05:12:43.117Z,99487.73
2017-11-24T05:15:09.380Z,99490.60
2017-11-24T05:17:35.652Z,99482.08
2017-11-24T05:20:01.968Z,99484.34
2017-11-24T05:22:29.007Z,99475.91
2017-11-24T05:24:56.057Z,99465.80
2017-11-24T05:27:23.141Z,99463.46
2017-11-24T05:29:49.408Z,99463.14
2017-11-24T05:32:15.711Z,99461.20
2017-11-24T05:34:42.022Z,99463.55
2017-11-24T05:37:08.301Z,99463.14
2017-11-24T05:39:34.672Z,99462.12
2017-11-24T05:42:00.990Z,99473.16
2017-11-24T05:44:27.333Z,99466.27
2017-11-24T05:46:53.591Z,99478.57
2017-11-24T05:49:19.978Z,99472.95
2017-11-24T05:51:47.035Z,99474.44
2017-11-24T05:54:13.323Z,99481.97
2017-11-24T05:56:39.608Z,99475.23
2017-11-24T05:59:05.954Z,99475.47
2017-11-24T06:01:32.255Z,99479.53
2017-11-24T06:03:58.583Z,99484.08
2017-11-24T06:06:25.586Z,99492.22
2017-11-24T06:08:51.881Z,99495.54
2017-11-24T06:11:18.210Z,99493.81
2017-11-24T06:13:44.575Z,99485.80
2017-11-24T06:16:10.880Z,99482.44
2017-11-24T06:18:37.219Z,99486.95
2017-11-24T06:21:03.517Z,99486.77
2017-11-24T06:23:30.579Z,99489.13
2017-11-24T06:25:56.957Z,99477.03
2017-11-24T06:28:23.237Z,99484.47
2017-11-24T06:30:49.518Z,99484.38
2017-11-24T06:33:15.817Z,99474.13
2017-11-24T06:35:42.122Z,99474.85
2017-11-24T06:38:08.441Z,99476.38
2017-11-24T06:40:35.485Z,99471.70
2017-11-24T06:43:02.537Z,99468.91
2017-11-24T06:45:29.533Z,99475.93
2017-11-24T06:47:55.874Z,99469.50
2017-11-24T06:50:22.241Z,99477.86
2017-11-24T06:52:49.324Z,99469.32
2017-11-24T06:55:15.672Z,99474.91
2017-11-24T06:57:42.064Z,99476.16
2017-11-24T07:00:09.129Z,99480.52
2017-11-24T07:02:35.450Z,99486.48
2017-11-24T07:05:02.512Z,99484.76
2017-11-24T07:07:28.829Z,99487.45
2017-11-24T07:09:55.892Z,99487.29
2017-11-24T07:12:22.174Z,99482.06
2017-11-24T07:14:48.428Z,99477.76
2017-11-24T07:17:15.466Z,99479.17
2017-11-24T07:19:41.721Z,99476.55
2017-11-24T07:22:08.060Z,99467.13
2017-11-24T07:24:34.390Z,99463.66
2017-11-24T07:27:00.725Z,99473.63
2017-11-24T07:29:27.083Z,99474.36
2017-11-24T07:31:53.618Z,99470.62
2017-11-24T07:34:19.989Z,99455.25
2017-11-24T07:36:48.394Z,99453.65
2017-11-24T07:39:14.705Z,99461.82
2017-11-24T07:41:41.738Z,99452.09
2017-11-24T07:44:08.032Z,99449.48
2017-11-24T07:46:34.291Z,99435.94
2017-11-24T07:49:00.610Z,99429.68
2017-11-24T07:51:26.970Z,99430.91
2017-11-24T07:53:53.293Z,99431.12
2017-11-24T07:56:19.693Z,99424.92
2017-11-24T07:58:45.973Z,99430.88
2017-11-24T08:01:12.282Z,99431.25
2017-11-24T08:03:38.609Z,99428.10
2017-11-24T08:06:04.870Z,99427.88
2017-11-24T08:08:31.242Z,99418.47
2017-11-24T08:10:57.647Z,99428.27
2017-11-24T08:13:23.979Z,99412.59
2017-11-24T08:15:50.302Z,99416.30
2017-11-24T08:18:16.639Z,99417.70
2017-11-24T08:20:42.993Z,99417.95
2017-11-24T08:23:09.331Z,99422.45
2017-11-24T08:25:35.704Z,99411.72
2017-11-24T08:28:02.025Z,99399.94
2017-11-24T08:30:28.355Z,99405.27
2017-11-24T08:32:54.648Z,99407.53
2017-11-24T08:35:20.952Z,99400.95
2017-11-24T08:37:48.063Z,99390.56
2017-11-24T08:40:14.458Z,99376.67
2017-11-24T08:42:40.829Z,99380.13
2017-11-24T08:45:07.302Z,99386.42
2017-11-24T08:47:40.879Z,99391.22
2017-11-24T08:50:07.233Z,99395.59
2017-11-24T08:52:33.571Z,99398.77
2017-11-24T08:54:59.896Z,99384.47
2017-11-24T08:57:26.185Z,99379.70
2017-11-24T08:59:52.555Z,99378.02
2017-11-24T09:02:19.653Z,99394.09
2017-11-24T09:04:46.002Z,99400.58
2017-11-24T09:07:12.330Z,99401.67
2017-11-24T09:09:38.712Z,99414.08
2017-11-24T09:12:05.032Z,99411.22
2017-11-24T09:14:32.188Z,99417.16
2017-11-24T09:16:58.501Z,99413.28
2017-11-24T09:19:25.523Z,99407.67
2017-11-24T09:21:51.960Z,99407.73
2017-11-24T09:24:18.327Z,99408.83
2017-11-24T09:26:44.684Z,99409.55
2017-11-24T09:29:11.012Z,99395.52
2017-11-24T09:31:37.349Z,99387.98
2017-11-24T09:34:03.673Z,99394.00
2017-11-24T09:36:30.009Z,99386.80
2017-11-24T09:38:56.433Z,99382.48
2017-11-24T09:41:22.806Z,99374.08
2017-11-24T09:43:49.101Z,99373.77
2017-11-24T09:46:15.412Z,99361.31
2017-11-24T09:48:41.769Z,99346.95
2017-11-24T09:51:08.123Z,99351.70
2017-11-24T09:53:34.435Z,99358.25
2017-11-24T09:56:00.802Z,99364.95
2017-11-24T09:58:27.140Z,99357.77
2017-11-24T10:00:53.470Z,99355.48
2017-11-24T10:03:20.066Z,99347.86
2017-11-24T10:05:46.395Z,99359.67
2017-11-24T10:08:17.694Z,99347.59
2017-11-24T10:10:44.117Z,99353.11
2017-11-24T10:13:10.403Z,99355.55
2017-11-24T10:15:36.715Z,99360.90
2017-11-24T10:18:03.185Z,99361.67
2017-11-24T10:20:29.542Z,99352.94
2017-11-24T10:22:55.898Z,99343.90
2017-11-24T10:25:22.294Z,99348.60
2017-11-24T10:27:49.040Z,99351.80
2017-11-24T10:30:15.376Z,99361.13
2017-11-24T10:32:41.665Z,99349.36
2017-11-24T10:35:08.003Z,99342.55
2017-11-24T10:37:34.923Z,99338.64
2017-11-24T10:40:01.340Z,99350.92
2017-11-24T10:42:28.402Z,99346.44
2017-11-24T10:44:54.674Z,99344.05
2017-11-24T10:47:20.957Z,99334.69
2017-11-24T10:49:47.979Z,99326.75
2017-11-24T10:52:14.283Z,99323.28
2017-11-24T10:54:40.604Z,99331.05
2017-11-24T10:57:06.904Z,99326.07
2017-11-24T10:59:33.989Z,99325.52
2017-11-24T11:02:01.237Z,99327.50
2017-11-24T11:04:28.452Z,99324.68
2017-11-24T11:06:55.575Z,99318.67
2017-11-24T11:09:21.895Z,99307.20
2017-11-24T11:11:48.200Z,99314.87
2017-11-24T11:14:14.608Z,99309.67
2017-11-24T11:16:41.189Z,99316.89
2017-11-24T11:19:08.396Z,99309.80
2017-11-24T11:21:34.667Z,99299.80
2017-11-24T11:24:01.002Z,99301.35
2017-11-24T11:26:27.293Z,99300.92
2017-11-24T11:28:53.541Z,99302.58
2017-11-24T11:31:19.858Z,99298.28
2017-11-24T11:33:46.196Z,99286.92
2017-11-24T11:36:12.517Z,99293.55
2017-11-24T11:38:38.938Z,99305.72
2017-11-24T11:41:06.003Z,99288.62
2017-11-24T11:43:32.421Z,99289.52
2017-11-24T11:45:58.868Z,99291.81
2017-11-24T11:48:25.211Z,99290.06
2017-11-24T11:50:51.681Z,99294.23
2017-11-24T11:53:17.956Z,99287.75
2017-11-24T11:55:44.263Z,99277.39
2017-11-24T11:58:11.365Z,99274.12
2017-11-24T12:00:37.736Z,99288.90
2017-11-24T12:03:04.048Z,99276.17
2017-11-24T12:05:30.386Z,99269.03
2017-11-24T12:07:56.859Z,99265.95
2017-11-24T12:10:23.384Z,99262.64
2017-11-24T12:12:49.869Z,99263.00
2017-11-24T12:15:16.961Z,99260.95
2017-11-24T12:17:44.022Z,99264.11
2017-11-24T12:20:10.608Z,99270.37
2017-11-24T12:22:36.924Z,99286.43
2017-11-24T12:25:03.247Z,99266.41
2017-11-24T12:27:29.576Z,99262.13
2017-11-24T12:29:55.911Z,99247.66
2017-11-24T12:32:22.244Z,99241.16
2017-11-24T12:34:48.584Z,99237.48
2017-11-24T12:37:14.874Z,99220.96
2017-11-24T12:39:42.009Z,99215.89
2017-11-24T12:42:08.375Z,99218.91
2017-11-24T12:44:34.677Z,99214.91
2017-11-24T12:47:01.696Z,99227.45
2017-11-24T12:49:28.053Z,99211.81
2017-11-24T12:51:55.105Z,99202.81
2017-11-24T12:54:22.229Z,99217.44
2017-11-24T12:56:48.583Z,99214.91
2017-11-24T12:59:15.624Z,99212.44
2017-11-24T13:01:42.734Z,99202.80
2017-11-24T13:04:09.043Z,99207.50
2017-11-24T13:06:35.373Z,99210.61
2017-11-24T13:09:01.701Z,99209.19
2017-11-24T13:11:28.031Z,99220.58
2017-11-24T13:13:54.467Z,99216.52
2017-11-24T13:16:20.799Z,99208.23
2017-11-24T13:18:47.235Z,99214.56
2017-11-24T13:21:13.513Z,99217.19
2017-11-24T13:23:39.826Z,99214.64
2017-11-24T13:26:06.124Z,99221.50
2017-11-24T13:28:32.398Z,99228.66
2017-11-24T13:30:58.812Z,99234.01
2017-11-24T13:33:25.129Z,99235.32
2017-11-24T13:35:51.452Z,99249.37
2017-11-24T13:38:17.755Z,99245.72
2017-11-24T13:40:44.794Z,99242.78
2017-11-24T13:43:11.075Z,99238.53
2017-11-24T13:45:37.415Z,99242.73
2017-11-24T13:48:03.722Z,99253.95
2017-11-24T13:50:30.058Z,99252.85
2017-11-24T13:52:56.458Z,99258.40
2017-11-24T13:55:22.809Z,99261.24
2017-11-24T13:57:49.184Z,99255.20
2017-11-24T14:00:15.535Z,99254.70
2017-11-24T14:02:41.864Z,99250.78
2017-11-24T14:05:08.242Z,99259.05
2017-11-24T14:07:34.585Z,99262.95
2017-11-24T14:10:01.108Z,99267.64
2017-11-24T14:12:27.439Z,99267.34
2017-11-24T14:14:53.785Z,99269.08
2017-11-24T14:17:20.120Z,99275.80
2017-11-24T14:19:46.443Z,99275.72
2017-11-24T14:22:12.767Z,99287.97
2017-11-24T14:24:39.084Z,99288.91
2017-11-24T14:27:06.197Z,99284.69
2017-11-24T14:29:32.534Z,99291.44
2017-11-24T14:31:59.275Z,99300.02
2017-11-24T14:34:25.745Z,99305.86
2017-11-24T14:36:52.821Z,99308.21
2017-11-24T14:39:19.151Z,99310.14
2017-11-24T14:41:45.508Z,99308.11
2017-11-24T14:44:12.429Z,99303.03
2017-11-24T14:46:39.070Z,99305.94
2017-11-24T14:49:05.511Z,99317.54
2017-11-24T14:51:32.587Z,99316.37
2017-11-24T14:53:59.223Z,99321.06
2017-11-24T14:56:27.779Z,99331.50
2017-11-24T14:58:54.299Z,99332.81
2017-11-24T15:01:20.750Z,99338.02
2017-11-24T15:03:47.171Z,99342.61
2017-11-24T15:06:13.588Z,99337.72
2017-11-24T15:08:40.214Z,99335.42
2017-11-24T15:11:06.807Z,99335.11
2017-11-24T15:13:33.151Z,99335.12
2017-11-24T15:15:59.609Z,99330.73
2017-11-24T15:18:26.992Z,99332.23
2017-11-24T15:20:53.452Z,99333.89
2017-11-24T15:23:19.880Z,99332.74
2017-11-24T15:25:46.169Z,99328.42
2017-11-24T15:28:13.399Z,99328.17
2017-11-24T15:30:39.974Z,99339.60
2017-11-24T15:33:06.391Z,99332.48
2017-11-24T15:35:32.813Z,99336.05
2017-11-24T15:38:00.083Z,99331.81
2017-11-24T15:40:27.165Z,99335.96
2017-11-24T15:42:53.576Z,99339.49
2017-11-24T15:45:20.095Z,99337.43
2017-11-24T15:47:46.460Z,99341.98
2017-11-24T15:50:12.773Z,99344.21
2017-11-24T15:52:39.192Z,99341.83
2017-11-24T15:55:06.306Z,99338.09
2017-11-24T15:57:34.178Z,99333.73
2017-11-24T16:00:00.651Z,99335.45
2017-11-24T16:02:27.043Z,99339.02
2017-11-24T16:04:53.601Z,99339.73
2017-11-24T16:07:20.708Z,99350.61
2017-11-24T16:09:48.188Z,99346.37
2017-11-24T16:12:14.556Z,99355.13
2017-11-24T16:14:40.900Z,99354.72
2017-11-24T16:17:07.886Z,99352.91
2017-11-24T16:19:34.188Z,99351.66
2017-11-24T16:22:00.727Z,99341.39
2017-11-24T16:24:27.056Z,99355.92
2017-11-24T16:26:53.435Z,99361.50
2017-11-24T16:29:20.557Z,99364.38
2017-11-24T16:31:46.853Z,99362.83
2017-11-24T16:34:14.066Z,99364.27
2017-11-24T16:36:41.131Z,99352.77
2017-11-24T16:39:08.185Z,99355.86
2017-11-24T16:41:35.400Z,99365.15
2017-11-24T16:44:01.844Z,99360.16
2017-11-24T16:46:28.318Z,99350.99
2017-11-24T16:48:56.753Z,99353.03
2017-11-24T16:51:23.230Z,99353.86
2017-11-24T16:53:49.587Z,99342.45
2017-11-24T16:56:15.884Z,99346.59
2017-11-24T16:58:42.961Z,99347.80
2017-11-24T17:01:09.330Z,99339.39
2017-11-24T17:03:35.712Z,99338.55
2017-11-24T17:06:02.094Z,99333.53
2017-11-24T17:08:28.466Z,99343.49
2017-11-24T17:10:55.550Z,99342.50
2017-11-24T17:13:21.996Z,99336.63
2017-11-24T17:15:48.332Z,99342.19
2017-11-24T17:18:16.532Z,99341.62
2017-11-24T17:20:43.598Z,99351.70
2017-11-24T17:23:10.050Z,99351.77
2017-11-24T17:25:36.395Z,99360.44
2017-11-24T17:28:02.696Z,99354.27
2017-11-24T17:30:30.045Z,99357.11
2017-11-24T17:32:56.476Z,99346.95
2017-11-24T17:35:23.620Z,99353.81
2017-11-24T17:37:50.810Z,99350.67
2017-11-24T17:40:17.151Z,99353.13
2017-11-24T17:42:43.473Z,99355.89
2017-11-24T17:45:09.880Z,99354.64
2017-11-24T17:47:36.949Z,99351.92
2017-11-24T17:50:03.320Z,99357.02
2017-11-24T17:52:29.698Z,99363.42
2017-11-24T17:54:56.744Z,99377.74
2017-11-24T17:57:23.800Z,99426.01
2017-11-24T17:59:50.225Z,99452.73
2017-11-24T18:02:17.342Z,99434.58
2017-11-24T18:04:43.652Z,99455.78
2017-11-24T18:07:10.008Z,99445.66
2017-11-24T18:09:36.419Z,99439.64
2017-11-24T18:12:02.794Z,99458.28
2017-11-24T18:14:29.165Z,99450.95
2017-11-24T18:16:55.532Z,99461.27
2017-11-24T18:19:21.814Z,99467.36
2017-11-24T18:21:48.202Z,99469.13
2017-11-24T18:24:14.556Z,99476.02
2017-11-24T18:26:41.640Z,99473.57
2017-11-24T18:29:07.953Z,99485.63
2017-11-24T18:31:34.322Z,99489.52
2017-11-24T18:34:00.627Z,99492.92
2017-11-24T18:36:27.041Z,99494.66
2017-11-24T18:38:53.544Z,99491.52
2017-11-24T18:41:20.668Z,99497.18
2017-11-24T18:43:46.988Z,99509.78
2017-11-24T18:46:14.289Z,99511.80
2017-11-24T18:48:41.542Z,99520.99
2017-11-24T18:51:08.953Z,99514.58
2017-11-24T18:53:35.533Z,99526.63
2017-11-24T18:56:02.704Z,99528.61
2017-11-24T18:58:29.884Z,99536.49
2017-11-24T19:00:56.383Z,99547.97
2017-11-24T19:03:24.059Z,99535.41
2017-11-24T19:05:51.251Z,99538.18
2017-11-24T19:08:17.617Z,99544.97
2017-11-24T19:10:44.976Z,99548.36
2017-11-24T19:13:12.093Z,99545.28
2017-11-24T19:15:38.579Z,99549.28
2017-11-24T19:18:05.026Z,99552.93
2017-11-24T19:20:31.457Z,99550.41
2017-11-24T19:22:57.864Z,99564.16
2017-11-24T19:25:25.003Z,99567.50
2017-11-24T19:27:51.426Z,99566.14
2017-11-24T19:30:17.903Z,99575.51
2017-11-24T19:32:44.527Z,99587.82
2017-11-24T19:35:11.584Z,99592.58
2017-11-24T19:37:38.966Z,99592.79
2017-11-24T19:40:05.507Z,99588.66
2017-11-24T19:42:31.892Z,99594.98
2017-11-24T19:44:58.312Z,99588.83
2017-11-24T19:47:24.595Z,99592.32
2017-11-24T19:49:50.970Z,99588.56
2017-11-24T19:52:17.382Z,99591.89
2017-11-24T19:54:43.759Z,99596.12
2017-11-24T19:57:10.056Z,99592.28
2017-11-24T19:59:37.639Z,99591.34
2017-11-24T20:02:04.848Z,99590.97
2017-11-24T20:04:31.436Z,99591.89
2017-11-24T20:06:57.782Z,99595.23
2017-11-24T20:09:24.965Z,99588.31
2017-11-24T20:11:51.385Z,99581.41
2017-11-24T20:14:17.767Z,99575.36
2017-11-24T20:16:44.076Z,99577.23
2017-11-24T20:19:10.628Z,99578.05
2017-11-24T20:21:36.922Z,99588.92
2017-11-24T20:24:03.254Z,99593.58
2017-11-24T20:26:29.618Z,99595.93
2017-11-24T20:28:56.021Z,99594.74
2017-11-24T20:31:22.504Z,99594.70
2017-11-24T20:33:48.830Z,99585.13
2017-11-24T20:36:16.128Z,99585.09
2017-11-24T20:38:42.540Z,99585.34
2017-11-24T20:41:09.597Z,99596.83
2017-11-24T20:43:36.741Z,99592.39
2017-11-24T20:46:04.391Z,99600.38
2017-11-24T20:48:31.500Z,99585.00
2017-11-24T20:50:57.852Z,99583.48
2017-11-24T20:53:24.247Z,99590.09
2017-11-24T20:55:50.602Z,99599.87
2017-11-24T20:58:17.095Z,99596.45
2017-11-24T21:00:43.596Z,99581.91
2017-11-24T21:03:09.924Z,99580.55
2017-11-24T21:05:36.318Z,99589.16
2017-11-24T21:08:02.671Z,99597.34
2017-11-24T21:10:29.144Z,99589.70
2017-11-24T21:13:03.263Z,99593.83
2017-11-24T21:15:30.429Z,99583.52
2017-11-24T21:17:56.874Z,99586.73
2017-11-24T21:20:23.282Z,99579.39
2017-11-24T21:22:50.448Z,99586.83
2017-11-24T21:25:16.975Z,99584.31
2017-11-24T21:27:43.646Z,99597.12
2017-11-24T21:30:10.379Z,99601.02
2017-11-24T21:32:36.710Z,99590.58
2017-11-24T21:35:03.104Z,99591.67
2017-11-24T21:37:30.208Z,99607.31
2017-11-24T21:39:56.985Z,99617.30
2017-11-24T21:42:23.655Z,99599.59
2017-11-24T21:44:50.906Z,99593.55
2017-11-24T21:47:17.756Z,99589.63
2017-11-24T21:49:44.279Z,99595.45
2017-11-24T21:52:10.617Z,99599.61
2017-11-24T21:54:37.041Z,99590.40
2017-11-24T21:57:04.187Z,99596.93
2017-11-24T21:59:32.167Z,99585.20
2017-11-24T22:01:58.850Z,99591.63
2017-11-24T22:04:25.663Z,99588.29
2017-11-24T22:06:52.026Z,99601.67
2017-11-24T22:09:18.416Z,99593.38
2017-11-24T22:11:44.809Z,99595.02
2017-11-24T22:14:11.304Z,99593.47
2017-11-24T22:16:37.663Z,99593.30
2017-11-24T22:19:04.054Z,99589.83
2017-11-24T22:21:30.756Z,99584.34
2017-11-24T22:23:57.126Z,99588.86
2017-11-24T22:26:23.452Z,99587.53
2017-11-24T22:28:49.829Z,99597.77
2017-11-24T22:31:16.251Z,99602.80
2017-11-24T22:33:42.612Z,99601.59
2017-11-24T22:36:09.093Z,99609.91
2017-11-24T22:38:35.487Z,99609.41
2017-11-24T22:41:01.913Z,99598.67
2017-11-24T22:43:28.409Z,99598.16
2017-11-24T22:45:54.751Z,99596.34
2017-11-24T22:48:21.072Z,99604.16
2017-11-24T22:50:47.427Z,99592.25
2017-11-24T22:53:13.809Z,99590.02
2017-11-24T22:55:40.176Z,99591.96
2017-11-24T22:58:06.510Z,99592.08
2017-11-24T23:00:32.875Z,99589.02
2017-11-24T23:02:59.715Z,99592.66
2017-11-24T23:05:26.015Z,99594.50
2017-11-24T23:07:52.353Z,99591.25
2017-11-24T23:10:18.666Z,99577.41
2017-11-24T23:12:45.000Z,99585.42
2017-11-24T23:15:11.396Z,99580.44
2017-11-24T23:17:38.457Z,99581.25
2017-11-24T23:20:05.073Z,99577.67
2017-11-24T23:22:31.430Z,99570.63
2017-11-24T23:24:57.760Z,99575.26
2017-11-24T23:27:24.233Z,99575.95
2017-11-24T23:29:50.645Z,99571.96
2017-11-24T23:32:16.917Z,99570.71
2017-11-24T23:34:43.208Z,99560.95
2017-11-24T23:37:09.984Z,99564.92
2017-11-24T23:39:36.281Z,99561.72
2017-11-24T23:42:03.037Z,99560.24
2017-11-24T23:44:29.463Z,99554.88
2017-11-24T23:46:55.783Z,99545.97
2017-11-24T23:49:22.158Z,99547.12
2017-11-24T23:51:48.548Z,99546.61
2017-11-24T23:54:14.883Z,99548.06
2017-11-24T23:56:41.412Z,99546.25
2017-11-24T23:59:07.734Z,99540.41
